createdAt,value
2018-09-15T00:00:48.014Z,5.30
2018-09-15T00:03:15.791Z,5.07
2018-09-15T00:05:43.667Z,4.97
2018-09-15T00:08:11.599Z,5.67
2018-09-15T00:10:39.444Z,5.17
2018-09-15T00:13:07.368Z,5.40
2018-09-15T00:15:35.225Z,4.80
2018-09-15T00:18:05.294Z,4.90
2018-09-15T00:20:33.063Z,4.40
2018-09-15T00:23:00.936Z,5.00
2018-09-15T00:25:28.779Z,4.73
2018-09-15T00:27:56.530Z,5.40
2018-09-15T00:30:24.387Z,4.63
2018-09-15T00:32:52.165Z,3.33
2018-09-15T00:35:20.277Z,3.60
2018-09-15T00:37:48.171Z,4.40
2018-09-15T00:40:15.944Z,5.27
2018-09-15T00:42:44.068Z,4.00
2018-09-15T00:45:12.096Z,4.63
2018-09-15T00:47:39.901Z,5.33
2018-09-15T00:50:07.831Z,5.27
2018-09-15T00:52:35.669Z,3.83
2018-09-15T00:55:03.656Z,5.23
2018-09-15T00:57:31.419Z,4.90
2018-09-15T00:59:59.335Z,5.27
2018-09-15T01:02:27.275Z,4.80
2018-09-15T01:04:55.124Z,5.43
2018-09-15T01:07:22.963Z,5.07
2018-09-15T01:09:54.320Z,5.73
2018-09-15T01:12:22.236Z,6.00
2018-09-15T01:14:50.043Z,6.20
2018-09-15T01:17:17.927Z,5.70
2018-09-15T01:19:45.972Z,6.20
2018-09-15T01:22:13.824Z,5.57
2018-09-15T01:24:41.675Z,5.83
2018-09-15T01:27:09.549Z,5.93
2018-09-15T01:29:37.272Z,5.80
2018-09-15T01:32:05.166Z,4.87
2018-09-15T01:34:33.063Z,5.37
2018-09-15T01:37:01.217Z,5.63
2018-09-15T01:39:29.049Z,4.23
2018-09-15T01:41:56.857Z,5.97
2018-09-15T01:44:24.655Z,5.70
2018-09-15T01:46:52.479Z,5.43
2018-09-15T01:49:20.275Z,5.33
2018-09-15T01:51:48.119Z,4.63
2018-09-15T01:54:16.504Z,5.63
2018-09-15T01:56:44.271Z,5.43
2018-09-15T01:59:12.071Z,5.70
2018-09-15T02:01:39.880Z,5.53
2018-09-15T02:04:08.123Z,5.30
2018-09-15T02:06:35.988Z,5.83
2018-09-15T02:09:09.667Z,4.40
2018-09-15T02:11:37.509Z,5.50
2018-09-15T02:14:05.381Z,5.90
2018-09-15T02:16:33.204Z,5.63
2018-09-15T02:19:01.064Z,6.10
2018-09-15T02:21:28.915Z,5.90
2018-09-15T02:23:56.754Z,5.80
2018-09-15T02:26:24.575Z,6.07
2018-09-15T02:28:52.439Z,3.80
2018-09-15T02:31:20.274Z,5.70
2018-09-15T02:33:48.069Z,4.00
2018-09-15T02:36:16.291Z,5.73
2018-09-15T02:38:44.293Z,6.30
2018-09-15T02:41:12.368Z,3.87
2018-09-15T02:43:40.217Z,3.87
2018-09-15T02:46:07.992Z,4.23
2018-09-15T02:48:35.755Z,4.00
2018-09-15T02:51:03.661Z,5.70
2018-09-15T02:53:31.471Z,5.07
2018-09-15T02:55:59.321Z,3.70
2018-09-15T02:58:27.212Z,3.83
2018-09-15T03:00:55.012Z,6.47
2018-09-15T03:03:22.819Z,6.23
2018-09-15T03:05:50.655Z,6.70
2018-09-15T03:08:18.476Z,6.77
2018-09-15T03:10:46.302Z,4.80
2018-09-15T03:13:14.140Z,6.40
2018-09-15T03:15:41.943Z,5.20
2018-09-15T03:18:09.784Z,6.03
2018-09-15T03:20:37.652Z,4.83
2018-09-15T03:23:05.656Z,6.20
2018-09-15T03:25:33.427Z,6.23
2018-09-15T03:28:01.255Z,6.33
2018-09-15T03:30:29.072Z,4.83
2018-09-15T03:32:56.891Z,4.53
2018-09-15T03:35:24.772Z,5.73
2018-09-15T03:37:52.539Z,3.90
2018-09-15T03:40:20.360Z,3.97
2018-09-15T03:42:52.515Z,4.90
2018-09-15T03:45:20.379Z,4.37
2018-09-15T03:47:48.210Z,5.10
2018-09-15T03:50:16.041Z,5.20
2018-09-15T03:52:43.881Z,6.20
2018-09-15T03:55:11.679Z,4.60
2018-09-15T03:57:39.484Z,4.73
2018-09-15T04:00:07.449Z,4.93
2018-09-15T04:02:35.297Z,5.10
2018-09-15T04:05:03.232Z,5.90
2018-09-15T04:07:30.996Z,5.57
2018-09-15T04:09:58.895Z,5.70
2018-09-15T04:12:26.675Z,7.50
2018-09-15T04:14:54.499Z,5.50
2018-09-15T04:17:22.373Z,5.80
2018-09-15T04:19:50.217Z,7.23
2018-09-15T04:22:18.003Z,7.60
2018-09-15T04:24:45.816Z,8.00
2018-09-15T04:27:13.701Z,6.40
2018-09-15T04:29:41.483Z,6.97
2018-09-15T04:32:09.307Z,8.05
2018-09-15T04:34:37.172Z,6.13
2018-09-15T04:37:05.051Z,5.80
2018-09-15T04:39:32.895Z,6.60
2018-09-15T04:42:00.744Z,4.83
2018-09-15T04:44:28.583Z,4.80
2018-09-15T04:46:59.960Z,7.17
2018-09-15T04:49:27.815Z,7.37
2018-09-15T04:51:55.687Z,7.77
2018-09-15T04:54:23.540Z,6.37
2018-09-15T04:56:51.352Z,6.47
2018-09-15T04:59:19.183Z,7.50
2018-09-15T05:01:47.049Z,9.17
2018-09-15T05:04:14.941Z,7.10
2018-09-15T05:06:42.803Z,5.17
2018-09-15T05:09:11.788Z,7.30
2018-09-15T05:11:39.657Z,6.87
2018-09-15T05:14:07.451Z,8.30
2018-09-15T05:16:35.322Z,8.37
2018-09-15T05:19:03.175Z,8.23
2018-09-15T05:21:31.031Z,5.80
2018-09-15T05:23:58.924Z,5.50
2018-09-15T05:26:26.695Z,8.90
2018-09-15T05:28:54.629Z,9.20
2018-09-15T05:31:22.505Z,8.57
2018-09-15T05:33:56.938Z,9.47
2018-09-15T05:36:26.231Z,8.40
2018-09-15T05:38:55.013Z,9.70
2018-09-15T05:41:23.037Z,10.23
2018-09-15T05:43:54.119Z,10.33
2018-09-15T05:46:24.705Z,10.10
2018-09-15T05:48:52.578Z,9.93
2018-09-15T05:51:21.209Z,9.93
2018-09-15T05:53:49.087Z,9.90
2018-09-15T05:56:16.944Z,7.00
2018-09-15T05:58:44.807Z,9.17
2018-09-15T06:01:12.669Z,9.03
2018-09-15T06:03:40.531Z,7.20
2018-09-15T06:06:08.457Z,9.40
2018-09-15T06:08:36.280Z,9.13
2018-09-15T06:11:04.809Z,7.60
2018-09-15T06:13:32.966Z,7.03
2018-09-15T06:16:01.580Z,9.10
2018-09-15T06:18:30.198Z,9.40
2018-09-15T06:20:58.002Z,10.27
2018-09-15T06:23:25.836Z,9.67
2018-09-15T06:25:53.729Z,8.83
2018-09-15T06:28:31.705Z,9.27
2018-09-15T06:30:59.755Z,8.87
2018-09-15T06:33:27.560Z,9.27
2018-09-15T06:35:59.513Z,8.97
2018-09-15T06:38:27.428Z,8.90
2018-09-15T06:40:55.292Z,8.93
2018-09-15T06:43:23.136Z,8.83
2018-09-15T06:45:51.119Z,8.53
2018-09-15T06:48:18.872Z,7.60
2018-09-15T06:50:46.779Z,8.50
2018-09-15T06:53:14.573Z,8.63
2018-09-15T06:55:42.458Z,7.60
2018-09-15T06:58:10.249Z,8.00
2018-09-15T07:00:38.105Z,7.53
2018-09-15T07:03:05.911Z,8.30
2018-09-15T07:05:33.755Z,7.43
2018-09-15T07:08:01.597Z,7.83
2018-09-15T07:10:29.455Z,7.63
2018-09-15T07:12:57.383Z,8.13
2018-09-15T07:15:25.196Z,7.23
2018-09-15T07:17:53.063Z,7.10
2018-09-15T07:20:20.892Z,6.87
2018-09-15T07:22:48.659Z,7.97
2018-09-15T07:25:16.566Z,7.23
2018-09-15T07:27:44.329Z,7.47
2018-09-15T07:30:12.100Z,7.27
2018-09-15T07:32:39.947Z,7.63
2018-09-15T07:35:07.723Z,7.20
2018-09-15T07:37:37.455Z,8.57
2018-09-15T07:40:09.538Z,7.33
2018-09-15T07:42:38.555Z,8.10
2018-09-15T07:45:06.411Z,7.90
2018-09-15T07:47:34.288Z,7.77
2018-09-15T07:50:02.124Z,7.27
2018-09-15T07:52:30.533Z,6.97
2018-09-15T07:54:58.371Z,6.90
2018-09-15T07:57:26.696Z,6.47
2018-09-15T08:00:04.628Z,6.90
2018-09-15T08:02:37.517Z,6.90
2018-09-15T08:05:05.474Z,6.80
2018-09-15T08:07:33.474Z,5.90
2018-09-15T08:10:02.026Z,6.50
2018-09-15T08:12:29.889Z,6.37
2018-09-15T08:14:57.732Z,6.07
2018-09-15T08:17:25.807Z,5.97
2018-09-15T08:19:54.107Z,6.23
2018-09-15T08:22:21.947Z,6.60
2018-09-15T08:24:50.874Z,6.17
2018-09-15T08:27:18.805Z,6.93
2018-09-15T08:29:46.614Z,6.07
2018-09-15T08:32:14.435Z,6.37
2018-09-15T08:34:42.240Z,6.30
2018-09-15T08:37:10.080Z,5.97
2018-09-15T08:39:37.854Z,6.30
2018-09-15T08:42:05.816Z,5.90
2018-09-15T08:44:37.860Z,5.33
2018-09-15T08:47:06.375Z,4.47
2018-09-15T08:49:34.187Z,4.43
2018-09-15T08:52:02.027Z,5.20
2018-09-15T08:54:29.855Z,5.60
2018-09-15T08:56:57.682Z,5.30
2018-09-15T08:59:25.495Z,3.33
2018-09-15T09:01:53.390Z,4.83
2018-09-15T09:04:21.244Z,3.80
2018-09-15T09:06:49.496Z,3.17
2018-09-15T09:09:17.375Z,3.13
2018-09-15T09:11:45.180Z,3.90
2018-09-15T09:14:12.913Z,4.20
2018-09-15T09:16:40.787Z,4.10
2018-09-15T09:19:08.685Z,3.63
2018-09-15T09:21:36.574Z,3.30
2018-09-15T09:24:04.399Z,4.43
2018-09-15T09:26:32.468Z,3.53
2018-09-15T09:29:00.165Z,3.63
2018-09-15T09:31:28.104Z,2.97
2018-09-15T09:33:55.974Z,3.80
2018-09-15T09:36:23.807Z,4.00
2018-09-15T09:38:51.656Z,3.17
2018-09-15T09:41:19.440Z,1.77
2018-09-15T09:43:47.188Z,1.30
2018-09-15T09:48:52.316Z,1.43
2018-09-15T09:51:20.096Z,2.43
2018-09-15T09:53:47.906Z,1.77
2018-09-15T09:56:15.792Z,1.50
2018-09-15T09:58:43.744Z,1.47
2018-09-15T10:01:17.322Z,1.40
2018-09-15T10:03:45.048Z,2.07
2018-09-15T10:06:12.867Z,1.40
2018-09-15T10:08:40.735Z,1.43
2018-09-15T10:11:08.620Z,1.73
2018-09-15T10:13:36.487Z,1.30
2018-09-15T10:16:04.385Z,1.40
2018-09-15T10:18:32.223Z,1.17
2018-09-15T10:21:00.070Z,1.60
2018-09-15T10:23:27.872Z,1.77
2018-09-15T10:25:55.739Z,1.77
2018-09-15T10:28:23.655Z,1.73
2018-09-15T10:30:51.516Z,1.40
2018-09-15T10:33:19.316Z,1.60
2018-09-15T10:35:47.148Z,1.20
2018-09-15T10:38:14.991Z,1.20
2018-09-15T10:40:42.711Z,1.00
2018-09-15T10:43:10.630Z,1.40
2018-09-15T10:45:38.411Z,1.23
2018-09-15T10:48:06.523Z,1.53
2018-09-15T10:50:34.565Z,1.70
2018-09-15T10:53:02.442Z,1.50
2018-09-15T10:55:30.449Z,1.33
2018-09-15T10:57:58.259Z,1.30
2018-09-15T11:00:26.225Z,1.13
2018-09-15T11:02:54.002Z,1.33
2018-09-15T11:05:21.797Z,1.10
2018-09-15T11:07:49.584Z,1.40
2018-09-15T11:10:17.342Z,1.57
2018-09-15T11:12:45.287Z,1.10
2018-09-15T11:15:13.215Z,1.30
2018-09-15T11:17:41.092Z,1.00
2018-09-15T11:20:08.939Z,1.20
2018-09-15T11:22:36.839Z,1.50
2018-09-15T11:25:04.671Z,1.30
2018-09-15T11:27:33.016Z,1.30
2018-09-15T11:30:00.907Z,1.47
2018-09-15T11:32:28.735Z,1.20
2018-09-15T11:34:56.955Z,1.20
2018-09-15T11:37:24.896Z,1.23
2018-09-15T11:39:52.703Z,1.47
2018-09-15T11:42:22.596Z,1.03
2018-09-15T11:44:50.524Z,0.93
2018-09-15T11:47:18.381Z,1.23
2018-09-15T11:49:46.537Z,0.80
2018-09-15T11:52:14.620Z,1.10
2018-09-15T11:54:42.724Z,0.97
2018-09-15T11:57:13.884Z,0.87
2018-09-15T11:59:43.491Z,1.00
2018-09-15T12:02:11.639Z,0.97
2018-09-15T12:04:39.508Z,1.13
2018-09-15T12:07:07.303Z,1.30
2018-09-15T12:09:35.115Z,1.40
2018-09-15T12:12:02.970Z,1.40
2018-09-15T12:14:30.820Z,1.20
2018-09-15T12:16:58.639Z,1.10
2018-09-15T12:19:26.459Z,1.23
2018-09-15T12:21:54.262Z,0.70
2018-09-15T12:24:22.056Z,0.70
2018-09-15T12:26:49.884Z,0.90
2018-09-15T12:29:18.092Z,0.80
2018-09-15T12:31:46.083Z,0.77
2018-09-15T12:34:13.915Z,0.80
2018-09-15T12:36:44.136Z,1.00
2018-09-15T12:39:11.939Z,0.83
2018-09-15T12:41:39.849Z,0.80
2018-09-15T12:44:07.683Z,0.80
2018-09-15T12:46:35.503Z,0.80
2018-09-15T12:49:03.308Z,0.77
2018-09-15T12:51:31.153Z,0.90
2018-09-15T12:53:58.972Z,0.70
2018-09-15T12:56:26.779Z,0.60
2018-09-15T12:58:54.552Z,0.90
2018-09-15T13:01:25.096Z,0.80
2018-09-15T13:03:52.975Z,0.70
2018-09-15T13:06:20.770Z,0.70
2018-09-15T13:08:48.592Z,0.93
2018-09-15T13:11:16.371Z,1.00
2018-09-15T13:13:44.203Z,1.00
2018-09-15T13:16:12.055Z,0.70
2018-09-15T13:18:39.855Z,0.90
2018-09-15T13:21:07.707Z,0.73
2018-09-15T13:23:35.643Z,0.97
2018-09-15T13:26:03.476Z,0.80
2018-09-15T13:28:31.262Z,0.80
2018-09-15T13:30:59.124Z,0.90
2018-09-15T13:33:26.944Z,0.80
2018-09-15T13:35:54.787Z,1.03
2018-09-15T13:38:22.663Z,1.00
2018-09-15T13:40:50.503Z,0.80
2018-09-15T13:43:18.358Z,0.67
2018-09-15T13:45:46.190Z,0.90
2018-09-15T13:48:14.024Z,1.23
2018-09-15T13:50:41.895Z,1.07
2018-09-15T13:53:09.760Z,0.70
2018-09-15T13:55:37.512Z,0.73
2018-09-15T13:58:05.664Z,0.80
2018-09-15T14:00:33.513Z,0.67
2018-09-15T14:03:01.407Z,0.60
2018-09-15T14:05:29.212Z,1.17
2018-09-15T14:07:56.951Z,1.00
2018-09-15T14:10:24.771Z,0.90
2018-09-15T14:12:52.525Z,0.57
2018-09-15T14:15:20.378Z,0.77
2018-09-15T14:17:48.283Z,1.23
2018-09-15T14:20:16.127Z,1.00
2018-09-15T14:22:43.903Z,0.90
2018-09-15T14:25:11.714Z,0.70
2018-09-15T14:27:39.607Z,0.83
2018-09-15T14:30:07.427Z,0.93
2018-09-15T14:32:35.293Z,0.90
2018-09-15T14:35:05.780Z,0.83
2018-09-15T14:37:33.560Z,0.90
2018-09-15T14:40:01.763Z,0.97
2018-09-15T14:42:29.644Z,1.10
2018-09-15T14:44:57.514Z,0.83
2018-09-15T14:47:25.382Z,0.87
2018-09-15T14:49:53.203Z,0.70
2018-09-15T14:52:21.065Z,0.90
2018-09-15T14:54:48.844Z,0.90
2018-09-15T14:57:16.698Z,1.00
2018-09-15T14:59:44.508Z,1.03
2018-09-15T15:02:12.287Z,1.27
2018-09-15T15:04:40.157Z,0.70
2018-09-15T15:07:08.210Z,0.73
2018-09-15T15:09:36.123Z,0.93
2018-09-15T15:12:04.028Z,1.00
2018-09-15T15:14:31.827Z,1.20
2018-09-15T15:16:59.868Z,1.07
2018-09-15T15:19:27.717Z,0.90
2018-09-15T15:21:55.479Z,1.00
2018-09-15T15:24:23.247Z,0.80
2018-09-15T15:26:51.273Z,0.73
2018-09-15T15:29:19.092Z,0.87
2018-09-15T15:31:46.999Z,1.00
2018-09-15T15:34:15.887Z,0.77
2018-09-15T15:36:43.727Z,0.80
2018-09-15T15:39:11.812Z,1.20
2018-09-15T15:41:39.576Z,0.83
2018-09-15T15:44:07.526Z,0.93
2018-09-15T15:46:35.495Z,0.73
2018-09-15T15:49:03.736Z,1.03
2018-09-15T15:51:31.953Z,0.97
2018-09-15T15:53:59.847Z,1.50
2018-09-15T15:56:27.897Z,1.40
2018-09-15T15:58:56.257Z,1.40
2018-09-15T16:01:23.984Z,1.17
2018-09-15T16:03:52.235Z,1.20
2018-09-15T16:06:20.515Z,1.20
2018-09-15T16:08:50.539Z,1.10
2018-09-15T16:11:18.999Z,0.97
2018-09-15T16:13:47.134Z,1.40
2018-09-15T16:16:15.038Z,0.73
2018-09-15T16:18:43.114Z,1.30
2018-09-15T16:21:11.093Z,1.30
2018-09-15T16:23:39.208Z,1.83
2018-09-15T16:26:07.783Z,1.10
2018-09-15T16:28:35.934Z,1.40
2018-09-15T16:31:03.991Z,1.20
2018-09-15T16:33:32.226Z,1.40
2018-09-15T16:36:03.161Z,1.33
2018-09-15T16:38:31.140Z,1.30
2018-09-15T16:40:59.216Z,0.73
2018-09-15T16:43:27.136Z,1.30
2018-09-15T16:45:55.477Z,0.93
2018-09-15T16:48:23.926Z,1.50
2018-09-15T16:50:51.760Z,1.20
2018-09-15T16:53:19.743Z,1.20
2018-09-15T16:55:47.773Z,1.43
2018-09-15T16:58:15.614Z,1.43
2018-09-15T17:00:43.415Z,1.50
2018-09-15T17:03:11.498Z,1.43
2018-09-15T17:05:39.821Z,1.20
2018-09-15T17:08:08.172Z,1.23
2018-09-15T17:10:37.027Z,1.50
2018-09-15T17:13:05.120Z,1.60
2018-09-15T17:15:33.299Z,1.60
2018-09-15T17:18:01.126Z,2.10
2018-09-15T17:20:29.624Z,1.90
2018-09-15T17:22:57.680Z,2.00
2018-09-15T17:25:25.645Z,1.70
2018-09-15T17:27:53.955Z,1.87
2018-09-15T17:30:22.055Z,1.80
2018-09-15T17:32:49.955Z,1.30
2018-09-15T17:35:17.964Z,1.90
2018-09-15T17:37:45.888Z,1.57
2018-09-15T17:40:13.740Z,2.07
2018-09-15T17:42:41.609Z,2.03
2018-09-15T17:45:09.478Z,2.00
2018-09-15T17:47:37.259Z,2.07
2018-09-15T17:50:05.055Z,1.77
2018-09-15T17:52:32.931Z,2.27
2018-09-15T17:55:01.440Z,3.13
2018-09-15T17:57:31.689Z,2.00
2018-09-15T17:59:59.614Z,1.60
2018-09-15T18:02:28.521Z,1.60
2018-09-15T18:04:57.238Z,1.60
2018-09-15T18:07:24.971Z,1.33
2018-09-15T18:09:52.909Z,1.40
2018-09-15T18:12:20.765Z,1.73
2018-09-15T18:14:48.591Z,1.80
2018-09-15T18:17:16.480Z,2.00
2018-09-15T18:19:44.424Z,2.30
2018-09-15T18:22:12.245Z,2.33
2018-09-15T18:24:40.032Z,2.30
2018-09-15T18:27:07.875Z,2.63
2018-09-15T18:29:36.278Z,2.97
2018-09-15T18:32:04.225Z,3.43
2018-09-15T18:34:32.074Z,2.20
2018-09-15T18:37:00.183Z,3.13
2018-09-15T18:39:28.150Z,3.40
2018-09-15T18:41:56.944Z,3.40
2018-09-15T18:44:24.903Z,3.20
2018-09-15T18:46:53.059Z,3.40
2018-09-15T18:49:20.946Z,4.03
2018-09-15T18:51:48.764Z,3.40
2018-09-15T18:54:16.592Z,2.50
2018-09-15T18:56:44.472Z,2.70
2018-09-15T18:59:12.260Z,2.57
2018-09-15T19:01:40.007Z,1.63
2018-09-15T19:04:07.804Z,1.73
2018-09-15T19:06:35.649Z,1.73
2018-09-15T19:09:06.293Z,1.73
2018-09-15T19:11:34.218Z,1.53
2018-09-15T19:14:02.123Z,1.90
2018-09-15T19:16:30.060Z,3.00
2018-09-15T19:18:57.963Z,9.70
2018-09-15T19:21:25.872Z,7.37
2018-09-15T19:23:53.764Z,4.53
2018-09-15T19:26:21.508Z,2.87
2018-09-15T19:28:49.304Z,3.10
2018-09-15T19:31:17.116Z,2.60
2018-09-15T19:33:44.959Z,3.23
2018-09-15T19:36:12.871Z,3.20
2018-09-15T19:38:40.740Z,3.40
2018-09-15T19:41:08.723Z,3.20
2018-09-15T19:43:36.599Z,3.50
2018-09-15T19:46:09.210Z,4.40
2018-09-15T19:48:37.071Z,3.20
2018-09-15T19:51:05.123Z,3.70
2018-09-15T19:53:32.979Z,3.83
2018-09-15T19:56:00.820Z,4.57
2018-09-15T19:58:30.299Z,3.33
2018-09-15T20:00:58.752Z,3.23
2018-09-15T20:03:26.568Z,3.60
2018-09-15T20:05:54.596Z,3.47
2018-09-15T20:08:22.647Z,3.97
2018-09-15T20:10:50.797Z,3.37
2018-09-15T20:13:18.567Z,3.80
2018-09-15T20:15:44.977Z,4.00
2018-09-15T20:18:11.403Z,8.97
2018-09-15T20:20:37.849Z,8.03
2018-09-15T20:23:05.795Z,9.30
2018-09-15T20:25:33.700Z,8.53
2018-09-15T20:28:01.658Z,7.00
2018-09-15T20:30:29.916Z,7.20
2018-09-15T20:32:57.753Z,6.63
2018-09-15T20:35:25.496Z,6.73
2018-09-15T20:37:53.319Z,6.33
2018-09-15T20:40:21.238Z,6.77
2018-09-15T20:42:49.046Z,6.80
2018-09-15T20:45:16.775Z,7.27
2018-09-15T20:47:44.636Z,7.17
2018-09-15T20:50:12.418Z,7.53
2018-09-15T20:52:40.313Z,7.30
2018-09-15T20:55:10.582Z,6.83
2018-09-15T20:57:38.432Z,7.20
2018-09-15T21:00:07.953Z,7.30
2018-09-15T21:02:35.984Z,6.67
2018-09-15T21:05:07.314Z,5.13
2018-09-15T21:07:35.152Z,4.90
2018-09-15T21:10:03.194Z,4.43
2018-09-15T21:12:30.991Z,4.57
2018-09-15T21:14:58.780Z,3.83
2018-09-15T21:17:26.575Z,4.43
2018-09-15T21:19:54.380Z,4.30
2018-09-15T21:22:22.127Z,4.40
2018-09-15T21:24:49.945Z,4.70
2018-09-15T21:27:17.790Z,4.57
2018-09-15T21:29:46.358Z,5.50
2018-09-15T21:32:14.358Z,4.43
2018-09-15T21:34:42.167Z,5.40
2018-09-15T21:37:13.596Z,6.20
2018-09-15T21:39:41.482Z,5.73
2018-09-15T21:42:09.353Z,6.00
2018-09-15T21:44:37.220Z,6.23
2018-09-15T21:47:05.268Z,5.67
2018-09-15T21:49:33.120Z,5.63
2018-09-15T21:52:00.882Z,5.80
2018-09-15T21:54:28.690Z,5.73
2018-09-15T21:56:56.508Z,7.83
2018-09-15T21:59:24.360Z,7.30
2018-09-15T22:01:52.152Z,6.43
2018-09-15T22:04:21.064Z,6.30
2018-09-15T22:06:50.307Z,6.47
2018-09-15T22:09:18.221Z,5.83
2018-09-15T22:11:45.946Z,6.80
2018-09-15T22:14:13.703Z,6.60
2018-09-15T22:16:42.039Z,6.63
2018-09-15T22:19:09.864Z,7.17
2018-09-15T22:21:37.636Z,6.80
2018-09-15T22:24:06.109Z,5.47
2018-09-15T22:26:33.988Z,5.10
2018-09-15T22:29:02.055Z,4.97
2018-09-15T22:31:29.889Z,5.03
2018-09-15T22:33:58.431Z,4.93
2018-09-15T22:36:26.199Z,4.53
2018-09-15T22:38:54.048Z,5.10
2018-09-15T22:41:21.910Z,4.53
2018-09-15T22:43:49.964Z,5.53
2018-09-15T22:46:17.834Z,6.20
2018-09-15T22:48:45.660Z,6.80
2018-09-15T22:51:13.654Z,6.70
2018-09-15T22:53:41.663Z,6.33
2018-09-15T22:56:09.513Z,5.90
2018-09-15T22:58:37.428Z,5.90
2018-09-15T23:01:14.076Z,5.93
2018-09-15T23:03:43.867Z,4.97
2018-09-15T23:06:11.719Z,4.90
2018-09-15T23:08:40.315Z,4.47
2018-09-15T23:11:08.546Z,4.27
2018-09-15T23:13:36.646Z,4.40
2018-09-15T23:16:04.615Z,4.20
2018-09-15T23:18:32.445Z,3.93
2018-09-15T23:21:00.289Z,4.00
2018-09-15T23:23:28.128Z,3.60
2018-09-15T23:25:56.070Z,4.10
2018-09-15T23:28:23.849Z,4.33
2018-09-15T23:30:51.634Z,3.53
2018-09-15T23:33:19.517Z,3.60
2018-09-15T23:35:47.311Z,3.73
2018-09-15T23:38:15.141Z,3.63
2018-09-15T23:40:42.987Z,3.90
2018-09-15T23:43:10.748Z,4.27
2018-09-15T23:45:38.568Z,4.00
2018-09-15T23:48:06.387Z,3.53
2018-09-15T23:50:34.227Z,4.17
2018-09-15T23:53:02.090Z,3.87
2018-09-15T23:55:29.919Z,3.60
2018-09-15T23:58:04.547Z,3.60
